Dexter, Michigan
Current Conditions -  °F | °C
As of 5:53 PM on Wednesday 22 Oct 2014 (Local Time) from KARB Reporting Station
Clear Clear  
Wind Chill: 12°   Ceiling: Unl
Heat Index: 12°   Visibility: NA
Dew Point:   Wind: 7mph
Humidity: 57%   Direction: 360°N
Pressure: 30.28"   Gusts: NA
Location:  42.34°N, 83.89°W
Report Text: KARB 222153Z 36006KT CLR 12/03 A3028 RMK AO2 SLP256 T01170033 $
Loading
Personal Weather Stations






























Interactive Weather Map
Tropical Storm Tracking
New forecast layout! Learn more

10-Day Weather Forecast

Advertisements
Track Severe Weather on mobile